Time;durP1;ratioP1;P1;durP2;ratioP2;P2;SDS_P1;SDS_P2;PMS_P1;PMS_P2;Temp;Humidity;BMP_temperature;BMP_pressure;BME280_temperature;BME280_humidity;BME280_pressure;Samples;Min_cycle;Max_cycle;Signal;HPM_P1;HPM_P2
2023/02/06 00:04:35;;;;;;;6.55;3.63;;;14.60;66.50;;;;;;10530181;28;20046;-56
2023/02/06 00:09:35;;;;;;;6.40;2.50;;;14.60;66.50;;;;;;10530328;28;20046;-55
2023/02/06 00:14:36;;;;;;;3.35;2.05;;;14.70;66.70;;;;;;10511772;28;20581;-56
2023/02/06 00:19:37;;;;;;;6.30;2.30;;;14.60;67.10;;;;;;10529322;28;20028;-55
2023/02/06 00:24:39;;;;;;;5.50;2.15;;;14.60;67.20;;;;;;10529290;28;20123;-56
2023/02/06 00:29:40;;;;;;;5.90;2.20;;;14.60;67.50;;;;;;10529726;28;20015;-55
2023/02/06 00:34:40;;;;;;;5.72;2.10;;;14.60;67.60;;;;;;10529505;28;20059;-55
2023/02/06 00:39:41;;;;;;;4.88;1.55;;;14.60;67.60;;;;;;10511551;28;20082;-55
2023/02/06 00:44:42;;;;;;;6.70;1.95;;;14.50;67.70;;;;;;10511594;28;20034;-56
2023/02/06 00:49:42;;;;;;;5.15;2.20;;;14.50;67.70;;;;;;10511212;28;20100;-56
2023/02/06 00:54:43;;;;;;;5.10;1.65;;;14.50;67.80;;;;;;10529178;28;20415;-56
2023/02/06 00:59:44;;;;;;;5.68;2.25;;;14.50;67.90;;;;;;10511102;28;20116;-56
2023/02/06 01:04:45;;;;;;;3.67;1.50;;;14.50;67.80;;;;;;10527652;28;20119;-56
2023/02/06 01:09:45;;;;;;;4.15;2.30;;;14.40;68.10;;;;;;10527646;28;20008;-56
2023/02/06 01:14:46;;;;;;;5.97;1.92;;;14.40;68.00;;;;;;10535119;28;20115;-56
2023/02/06 01:19:47;;;;;;;6.65;2.10;;;14.40;68.00;;;;;;10535267;28;20023;-56
2023/02/06 01:24:47;;;;;;;4.05;1.27;;;14.50;67.80;;;;;;10536349;28;20048;-56
2023/02/06 01:29:48;;;;;;;3.78;1.52;;;14.40;67.90;;;;;;10536174;28;20019;-55
2023/02/06 01:34:48;;;;;;;3.63;2.13;;;14.40;68.00;;;;;;10518076;28;20115;-55
2023/02/06 01:39:49;;;;;;;5.28;1.75;;;14.40;68.00;;;;;;10534626;28;20103;-56
2023/02/06 01:45:25;;;;;;;3.67;1.40;;;14.40;68.00;;;;;;10534750;28;20107;-56
2023/02/06 01:50:28;;;;;;;4.68;1.95;;;14.40;67.20;;;;;;10535129;28;20028;-56
2023/02/06 01:55:28;;;;;;;3.90;1.75;;;14.40;66.50;;;;;;10535154;28;20013;-55
2023/02/06 02:00:30;;;;;;;3.95;1.92;;;14.30;66.10;;;;;;10516878;28;20024;-56
2023/02/06 02:05:32;;;;;;;4.60;1.42;;;14.30;66.50;;;;;;10534842;28;20040;-56
2023/02/06 02:10:33;;;;;;;5.28;1.92;;;14.30;67.00;;;;;;10533182;28;20016;-56
2023/02/06 02:15:46;;;;;;;4.85;2.17;;;14.30;67.00;;;;;;10533102;28;20016;-56
2023/02/06 02:21:30;;;;;;;4.32;1.55;;;14.30;67.20;;;;;;10534228;28;20102;-55
2023/02/06 02:27:23;;;;;;;3.78;1.70;;;14.30;67.50;;;;;;10528472;28;20097;-56
2023/02/06 02:33:13;;;;;;;3.92;1.60;;;14.30;67.80;;;;;;10533891;28;20028;-55
2023/02/06 02:38:41;;;;;;;5.40;2.17;;;14.30;67.40;;;;;;10515089;28;20641;-55
2023/02/06 02:43:50;;;;;;;3.90;1.25;;;14.20;67.50;;;;;;10533069;28;20027;-55
2023/02/06 02:48:55;;;;;;;4.65;1.48;;;14.20;67.30;;;;;;10514614;28;20020;-55
2023/02/06 02:53:57;;;;;;;3.47;1.85;;;14.20;67.50;;;;;;10514683;28;20015;-56
2023/02/06 02:59:03;;;;;;;3.65;1.70;;;14.20;67.50;;;;;;10531006;28;20016;-56
2023/02/06 03:04:15;;;;;;;3.03;1.50;;;14.20;67.60;;;;;;10531186;28;20028;-56
2023/02/06 03:09:45;;;;;;;5.25;1.90;;;14.20;67.60;;;;;;10530934;28;20031;-56
2023/02/06 03:15:04;;;;;;;4.22;1.40;;;14.20;67.90;;;;;;10518184;28;20391;-56
2023/02/06 03:20:08;;;;;;;3.00;1.08;;;14.20;66.40;;;;;;10496947;28;20430;-55
2023/02/06 03:25:14;;;;;;;5.50;1.50;;;14.20;66.20;;;;;;10529906;28;20047;-54
2023/02/06 03:30:18;;;;;;;4.40;1.58;;;14.20;66.40;;;;;;10513409;28;20016;-56
2023/02/06 03:35:28;;;;;;;8.52;1.60;;;14.10;66.60;;;;;;10529341;28;20107;-54
2023/02/06 03:40:29;;;;;;;4.40;1.67;;;14.20;66.60;;;;;;10529697;28;20096;-56
2023/02/06 03:45:38;;;;;;;3.78;1.92;;;14.20;65.90;;;;;;10512698;28;20509;-56
2023/02/06 03:50:42;;;;;;;3.03;1.60;;;14.30;66.00;;;;;;10529358;28;20023;-56
2023/02/06 03:55:45;;;;;;;5.40;2.00;;;14.60;65.20;;;;;;10508276;28;20048;-56
2023/02/06 04:00:47;;;;;;;4.70;1.90;;;14.80;64.60;;;;;;10530148;28;20024;-55
2023/02/06 04:05:48;;;;;;;6.03;1.58;;;14.90;63.90;;;;;;10512117;28;20098;-56
2023/02/06 04:10:49;;;;;;;4.07;1.45;;;15.10;63.30;;;;;;10529007;28;20111;-55
2023/02/06 04:15:50;;;;;;;4.30;1.35;;;15.40;62.80;;;;;;10528331;28;20035;-55
2023/02/06 04:20:51;;;;;;;5.80;2.08;;;15.60;62.00;;;;;;10526031;28;20023;-57
2023/02/06 04:25:52;;;;;;;4.00;1.30;;;15.80;61.60;;;;;;10511252;28;20039;-58
2023/02/06 04:30:53;;;;;;;3.72;1.67;;;15.90;61.30;;;;;;10529977;28;20017;-55
2023/02/06 04:35:53;;;;;;;4.88;1.60;;;15.90;61.20;;;;;;10529512;28;20020;-55
2023/02/06 04:40:54;;;;;;;4.43;1.45;;;16.00;61.10;;;;;;10511400;28;20093;-55
2023/02/06 04:45:55;;;;;;;2.80;1.17;;;16.10;60.90;;;;;;10530668;28;20120;-56
2023/02/06 04:50:55;;;;;;;2.63;1.58;;;16.10;60.90;;;;;;10537391;28;20465;-56
2023/02/06 04:56:09;;;;;;;3.10;1.40;;;16.20;60.80;;;;;;10537448;28;20099;-56
2023/02/06 05:01:09;;;;;;;3.00;0.95;;;16.20;60.70;;;;;;10537331;28;20028;-56
2023/02/06 05:06:10;;;;;;;2.83;1.08;;;16.30;60.60;;;;;;10535637;28;20078;-54
2023/02/06 05:11:11;;;;;;;2.75;1.17;;;16.30;60.60;;;;;;10535707;28;20428;-55
2023/02/06 05:16:15;;;;;;;6.43;2.15;;;16.30;60.50;;;;;;10535528;28;20016;-55
2023/02/06 05:21:16;;;;;;;3.15;1.50;;;16.40;60.40;;;;;;10536302;28;20028;-56
2023/02/06 05:26:17;;;;;;;2.33;1.50;;;16.50;60.10;;;;;;10535682;28;20040;-55
2023/02/06 05:31:18;;;;;;;2.88;1.55;;;16.50;60.00;;;;;;10517238;28;20008;-56
2023/02/06 05:36:21;;;;;;;3.40;1.58;;;16.60;60.10;;;;;;10534785;28;20050;-55
2023/02/06 05:41:21;;;;;;;3.92;1.30;;;16.60;60.10;;;;;;10534110;28;20016;-56
2023/02/06 05:46:22;;;;;;;6.53;1.90;;;16.60;60.10;;;;;;10534206;28;20043;-56
2023/02/06 05:51:23;;;;;;;4.00;2.42;;;16.50;60.60;;;;;;10516560;28;20014;-54
2023/02/06 05:56:23;;;;;;;4.38;2.30;;;16.50;61.20;;;;;;10515581;28;20152;-53
2023/02/06 06:01:24;;;;;;;7.25;2.50;;;16.70;61.00;;;;;;10515920;28;20032;-53
2023/02/06 06:06:25;;;;;;;4.93;2.47;;;16.70;61.60;;;;;;10498716;28;20026;-54
2023/02/06 06:11:28;;;;;;;7.85;2.40;;;16.70;62.60;;;;;;10515444;28;20646;-54
2023/02/06 06:16:30;;;;;;;6.57;3.20;;;17.00;62.60;;;;;;10533484;28;20026;-57
2023/02/06 06:21:32;;;;;;;7.25;2.70;;;17.00;63.00;;;;;;10532888;28;20455;-55
2023/02/06 06:26:33;;;;;;;15.57;2.90;;;17.10;62.80;;;;;;10515867;28;20072;-58
2023/02/06 06:31:34;;;;;;;12.63;2.97;;;17.10;63.60;;;;;;10515643;28;20024;-56
2023/02/06 06:36:34;;;;;;;10.35;3.15;;;17.00;64.30;;;;;;10515482;28;20020;-58
2023/02/06 06:41:35;;;;;;;16.75;4.50;;;17.10;62.80;;;;;;10515316;28;20725;-56
2023/02/06 06:46:36;;;;;;;15.70;4.00;;;17.10;62.80;;;;;;10488440;28;20037;-57
2023/02/06 06:51:36;;;;;;;14.32;4.03;;;17.00;62.90;;;;;;10529012;28;20016;-57
2023/02/06 06:56:37;;;;;;;14.35;2.75;;;17.00;62.60;;;;;;10513258;28;20032;-57
2023/02/06 07:01:38;;;;;;;13.55;2.95;;;17.00;62.20;;;;;;10514027;28;20013;-57
2023/02/06 07:06:38;;;;;;;19.45;3.60;;;17.00;62.90;;;;;;10530426;28;20135;-60
2023/02/06 07:11:39;;;;;;;15.52;3.25;;;17.10;62.70;;;;;;10506388;28;20054;-55
2023/02/06 07:16:40;;;;;;;11.00;2.35;;;16.90;62.70;;;;;;10503972;28;20024;-57
2023/02/06 07:21:40;;;;;;;11.57;2.25;;;16.80;62.80;;;;;;10509888;28;20039;-57
2023/02/06 07:26:42;;;;;;;11.85;2.22;;;16.70;63.00;;;;;;10510514;28;20086;-57
2023/02/06 07:31:42;;;;;;;17.30;2.33;;;16.60;63.40;;;;;;10509075;28;20697;-58
2023/02/06 07:36:43;;;;;;;7.07;2.88;;;16.50;63.30;;;;;;10507232;28;20104;-57
2023/02/06 07:41:45;;;;;;;12.88;2.65;;;16.50;62.80;;;;;;10506674;28;20020;-57
2023/02/06 07:46:46;;;;;;;7.45;2.53;;;16.50;62.90;;;;;;10525536;28;20177;-57
2023/02/06 07:51:47;;;;;;;15.52;2.83;;;16.60;63.30;;;;;;10523596;28;20044;-56
2023/02/06 07:56:47;;;;;;;7.50;1.88;;;16.50;62.70;;;;;;10519899;28;20807;-59
2023/02/06 08:01:48;;;;;;;10.70;2.25;;;16.40;62.90;;;;;;10506202;28;20012;-57
2023/02/06 08:06:49;;;;;;;8.32;1.85;;;16.40;63.00;;;;;;10486889;28;20105;-57
2023/02/06 08:11:49;;;;;;;8.65;2.15;;;16.40;63.10;;;;;;10468769;28;20027;-57
2023/02/06 08:16:51;;;;;;;13.63;2.03;;;16.40;63.10;;;;;;10511572;28;20099;-58
2023/02/06 08:21:51;;;;;;;8.05;1.80;;;16.40;63.30;;;;;;10520575;28;20020;-57
2023/02/06 08:26:52;;;;;;;10.73;1.90;;;16.40;63.20;;;;;;10506575;28;20561;-57
2023/02/06 08:31:52;;;;;;;13.35;3.25;;;16.30;63.30;;;;;;10508038;28;20608;-58
2023/02/06 08:36:53;;;;;;;7.80;1.98;;;16.30;63.70;;;;;;10525125;28;20099;-57
2023/02/06 08:41:54;;;;;;;10.73;2.40;;;16.30;63.50;;;;;;10526270;28;20105;-57
2023/02/06 08:46:54;;;;;;;6.97;1.60;;;16.20;63.60;;;;;;10509108;28;20024;-57
2023/02/06 08:51:55;;;;;;;7.82;1.70;;;16.20;63.60;;;;;;10508424;28;20016;-58
2023/02/06 08:56:59;;;;;;;7.03;2.45;;;16.20;63.40;;;;;;10508759;28;20107;-56
2023/02/06 09:02:00;;;;;;;5.80;1.70;;;16.30;63.30;;;;;;10508294;28;20055;-57
2023/02/06 09:07:01;;;;;;;7.22;1.50;;;16.30;63.30;;;;;;10524210;28;20104;-56
2023/02/06 09:12:02;;;;;;;8.38;1.50;;;16.20;63.40;;;;;;10508202;28;20055;-56
2023/02/06 09:17:03;;;;;;;8.07;1.92;;;16.10;63.70;;;;;;10431357;28;20041;-56
2023/02/06 09:22:04;;;;;;;7.40;2.33;;;16.20;63.90;;;;;;10485598;28;20496;-57
2023/02/06 09:27:04;;;;;;;6.72;1.65;;;16.10;63.80;;;;;;10467370;28;20127;-57
2023/02/06 09:32:05;;;;;;;6.80;1.40;;;16.10;63.90;;;;;;10487778;28;20399;-56
2023/02/06 09:37:06;;;;;;;6.82;1.42;;;16.20;63.80;;;;;;10493817;28;20107;-58
2023/02/06 09:42:23;;;;;;;4.68;1.48;;;16.20;63.70;;;;;;10473457;28;20099;-57
2023/02/06 09:47:32;;;;;;;7.03;1.52;;;16.20;63.90;;;;;;10475428;28;20032;-58
2023/02/06 09:53:17;;;;;;;7.57;1.90;;;16.10;64.20;;;;;;10475701;28;20017;-58
2023/02/06 09:58:42;;;;;;;8.15;1.55;;;16.20;65.10;;;;;;10473936;28;20117;-58
2023/02/06 10:04:17;;;;;;;4.13;1.38;;;16.20;64.90;;;;;;10443793;28;20511;-57
2023/02/06 10:09:25;;;;;;;5.85;1.55;;;16.10;65.80;;;;;;10474181;28;20024;-57
2023/02/06 10:14:39;;;;;;;6.05;1.25;;;16.10;66.10;;;;;;10471525;28;20606;-57
2023/02/06 10:19:56;;;;;;;7.85;2.60;;;16.00;66.20;;;;;;10472964;28;20021;-58
2023/02/06 10:25:12;;;;;;;6.07;1.48;;;15.90;66.70;;;;;;10472808;28;20123;-58
2023/02/06 10:30:18;;;;;;;7.15;2.00;;;15.90;67.40;;;;;;10489936;28;20363;-56
2023/02/06 10:35:52;;;;;;;3.90;1.40;;;15.90;66.70;;;;;;10458850;28;20020;-58
2023/02/06 10:41:10;;;;;;;7.22;1.85;;;15.70;67.00;;;;;;10473518;28;20056;-58
2023/02/06 10:46:39;;;;;;;6.63;1.42;;;15.60;67.70;;;;;;10479946;28;20040;-56
2023/02/06 10:51:47;;;;;;;4.22;1.40;;;15.50;67.60;;;;;;10458395;28;20111;-58
2023/02/06 10:56:50;;;;;;;6.95;1.77;;;15.50;67.60;;;;;;10473359;28;20460;-58
2023/02/06 11:02:18;;;;;;;5.55;1.40;;;15.60;67.10;;;;;;10479516;28;20031;-59
2023/02/06 11:07:44;;;;;;;5.80;2.20;;;15.50;68.20;;;;;;10456821;28;20352;-56
2023/02/06 11:13:26;;;;;;;4.18;1.15;;;15.50;68.40;;;;;;10453721;28;20055;-59
2023/02/06 11:18:38;;;;;;;16.38;2.13;;;15.40;68.20;;;;;;10444654;28;20020;-58
2023/02/06 11:23:40;;;;;;;4.03;1.30;;;15.40;68.60;;;;;;10452890;28;20463;-58
2023/02/06 11:29:00;;;;;;;4.95;1.33;;;15.40;68.60;;;;;;10469169;28;20044;-58
2023/02/06 11:34:01;;;;;;;3.65;1.70;;;15.50;69.20;;;;;;10471180;28;20070;-57
2023/02/06 11:39:33;;;;;;;3.78;1.17;;;15.50;68.70;;;;;;10468876;28;20016;-57
2023/02/06 11:44:38;;;;;;;3.47;1.20;;;15.50;68.60;;;;;;10470362;28;20484;-57
2023/02/06 11:49:39;;;;;;;3.75;1.35;;;15.50;68.60;;;;;;10486779;28;20417;-56
2023/02/06 11:54:40;;;;;;;9.00;1.65;;;15.50;68.60;;;;;;10486078;28;20514;-56
2023/02/06 11:59:55;;;;;;;5.55;1.02;;;15.50;69.10;;;;;;10468372;28;20067;-55
2023/02/06 12:05:19;;;;;;;14.25;3.10;;;15.50;69.00;;;;;;10451468;28;20314;-56
2023/02/06 12:10:22;;;;;;;6.40;1.20;;;15.50;69.00;;;;;;10466598;28;20032;-56
2023/02/06 12:15:43;;;;;;;15.48;2.22;;;15.50;69.10;;;;;;10454938;28;20035;-55
2023/02/06 12:21:03;;;;;;;17.80;2.10;;;15.40;69.20;;;;;;10467054;28;20031;-55
2023/02/06 12:26:13;;;;;;;15.43;2.75;;;15.40;69.40;;;;;;10467930;28;20044;-57
2023/02/06 12:31:53;;;;;;;25.45;2.60;;;15.40;69.30;;;;;;10468578;28;20009;-56
2023/02/06 12:37:20;;;;;;;11.05;2.30;;;15.40;69.10;;;;;;10472234;28;20021;-56
2023/02/06 12:42:40;;;;;;;15.75;3.50;;;15.40;69.20;;;;;;10485912;28;20573;-57
2023/02/06 12:47:54;;;;;;;;;;;15.30;69.10;;;;;;10478798;28;20082;-56
2023/02/06 12:53:09;;;;;;;15.80;2.53;;;15.30;69.50;;;;;;10467287;28;19904;-57
2023/02/06 12:58:42;;;;;;;13.70;2.40;;;15.30;69.50;;;;;;10469470;28;20105;-57
2023/02/06 13:04:06;;;;;;;10.23;2.35;;;15.20;69.80;;;;;;10368964;28;20035;-57
2023/02/06 13:09:07;;;;;;;14.65;2.30;;;15.20;69.50;;;;;;10455149;28;20032;-58
2023/02/06 13:14:21;;;;;;;11.18;2.05;;;15.20;69.40;;;;;;10475113;28;20098;-60
2023/02/06 13:19:42;;;;;;;26.08;3.05;;;15.20;69.30;;;;;;10474505;28;20016;-60
2023/02/06 13:24:47;;;;;;;19.00;3.10;;;15.30;69.20;;;;;;10424487;28;20415;-59
2023/02/06 13:29:52;;;;;;;12.10;2.50;;;15.30;69.10;;;;;;10476804;28;20028;-58
2023/02/06 13:35:20;;;;;;;17.95;3.20;;;15.30;69.20;;;;;;10474461;28;20556;-60
2023/02/06 13:40:24;;;;;;;10.85;2.92;;;15.30;69.00;;;;;;10492512;28;20031;-58
2023/02/06 13:45:59;;;;;;;7.90;2.15;;;15.20;68.80;;;;;;10474184;28;20085;-57
2023/02/06 13:51:19;;;;;;;14.20;2.50;;;15.20;68.80;;;;;;10457348;28;20545;-57
2023/02/06 13:57:16;;;;;;;10.18;1.75;;;15.20;68.90;;;;;;10473279;28;20020;-58
2023/02/06 14:02:33;;;;;;;13.18;2.85;;;15.10;68.50;;;;;;10493204;28;20044;-59
2023/02/06 14:08:14;;;;;;;8.63;2.60;;;15.10;68.80;;;;;;10458301;28;20074;-59
2023/02/06 14:13:35;;;;;;;8.27;3.65;;;15.10;68.80;;;;;;10492734;28;20017;-59
2023/02/06 14:19:08;;;;;;;10.63;2.17;;;15.10;68.60;;;;;;10491346;28;20016;-59
2023/02/06 14:24:46;;;;;;;5.45;1.98;;;15.20;68.60;;;;;;10454776;28;20109;-58
2023/02/06 14:30:39;;;;;;;9.65;2.10;;;15.20;68.60;;;;;;10491880;28;20037;-58
2023/02/06 14:36:21;;;;;;;14.60;2.83;;;15.30;68.90;;;;;;10454754;28;20511;-59
2023/02/06 14:41:25;;;;;;;10.75;1.83;;;15.70;69.00;;;;;;10446608;28;20051;-60
2023/02/06 14:46:27;;;;;;;27.77;3.58;;;15.90;68.90;;;;;;10474149;28;20056;-59
2023/02/06 14:51:35;;;;;;;18.25;2.72;;;15.90;68.60;;;;;;10452760;28;20115;-66
2023/02/06 14:56:38;;;;;;;15.57;2.20;;;15.80;68.70;;;;;;10470280;28;20439;-58
2023/02/06 15:01:41;;;;;;;11.68;3.05;;;15.70;68.80;;;;;;10470659;28;20100;-59
2023/02/06 15:06:50;;;;;;;22.15;3.70;;;15.70;69.00;;;;;;10453780;28;20777;-59
2023/02/06 15:11:55;;;;;;;17.45;3.58;;;15.70;69.10;;;;;;10442992;28;20536;-58
2023/02/06 15:16:58;;;;;;;17.98;4.03;;;15.60;69.70;;;;;;10467698;28;20166;-58
2023/02/06 15:22:13;;;;;;;21.38;3.90;;;15.50;69.80;;;;;;10459715;28;20040;-59
2023/02/06 15:27:29;;;;;;;13.70;4.22;;;15.50;70.60;;;;;;10469769;28;20044;-59
2023/02/06 15:32:37;;;;;;;17.20;3.35;;;15.50;70.70;;;;;;10452695;28;20016;-61
2023/02/06 15:37:38;;;;;;;20.97;3.43;;;15.40;70.90;;;;;;10452681;28;20050;-57
2023/02/06 15:42:39;;;;;;;24.52;5.68;;;15.40;70.40;;;;;;10468207;28;20025;-59
2023/02/06 15:47:41;;;;;;;25.38;4.38;;;15.40;70.20;;;;;;10469013;28;20121;-59
2023/02/06 15:52:45;;;;;;;17.38;3.28;;;15.30;70.40;;;;;;10466251;28;20009;-59
2023/02/06 15:57:47;;;;;;;14.48;3.15;;;15.40;70.30;;;;;;10448819;28;20556;-59
2023/02/06 16:02:49;;;;;;;19.45;3.78;;;15.30;70.50;;;;;;10487362;28;20089;-58
2023/02/06 16:07:50;;;;;;;12.75;3.13;;;15.30;70.80;;;;;;10466773;28;20055;-58
2023/02/06 16:12:52;;;;;;;21.25;3.33;;;15.40;70.60;;;;;;10462915;28;20428;-59
2023/02/06 16:17:53;;;;;;;12.23;3.58;;;15.40;70.60;;;;;;10468185;28;20544;-60
2023/02/06 16:23:17;;;;;;;24.02;3.67;;;15.50;70.40;;;;;;10460427;28;20021;-59
2023/02/06 16:28:21;;;;;;;14.25;2.63;;;15.40;70.50;;;;;;10481605;28;20053;-59
2023/02/06 16:33:32;;;;;;;13.55;3.00;;;15.50;70.30;;;;;;10468719;28;20154;-59
2023/02/06 16:38:33;;;;;;;14.15;3.38;;;15.50;70.30;;;;;;10464268;28;20024;-60
2023/02/06 16:43:33;;;;;;;15.48;3.70;;;15.40;70.20;;;;;;10473726;28;20025;-59
2023/02/06 16:48:34;;;;;;;16.38;2.92;;;15.40;69.00;;;;;;10477048;28;20173;-60
2023/02/06 16:53:37;;;;;;;10.45;2.40;;;15.70;69.30;;;;;;10495487;28;20532;-59
2023/02/06 16:58:38;;;;;;;14.98;3.67;;;15.80;69.70;;;;;;10476834;28;20029;-58
2023/02/06 17:03:39;;;;;;;17.70;3.70;;;16.00;70.90;;;;;;10477538;28;20024;-60
2023/02/06 17:08:40;;;;;;;17.13;3.70;;;16.20;70.40;;;;;;10495224;28;20473;-61
2023/02/06 17:13:41;;;;;;;10.90;2.38;;;16.20;70.00;;;;;;10476876;28;20154;-60
2023/02/06 17:18:42;;;;;;;25.65;3.53;;;16.10;70.10;;;;;;10458270;28;20035;-59
2023/02/06 17:23:44;;;;;;;15.32;2.58;;;16.00;69.40;;;;;;10462878;28;20364;-59
2023/02/06 17:28:45;;;;;;;13.63;2.58;;;16.10;70.30;;;;;;10455058;28;20051;-57
2023/02/06 17:33:46;;;;;;;11.10;2.00;;;16.10;69.60;;;;;;10479952;28;20021;-57
2023/02/06 17:38:47;;;;;;;17.52;2.22;;;16.10;69.40;;;;;;10476474;28;20029;-57
2023/02/06 17:43:48;;;;;;;10.45;2.58;;;16.00;69.40;;;;;;10493850;28;20107;-57
2023/02/06 17:48:49;;;;;;;11.50;2.17;;;16.00;69.70;;;;;;10482822;28;20749;-57
2023/02/06 17:53:50;;;;;;;11.40;3.28;;;16.00;69.40;;;;;;10492650;28;20056;-57
2023/02/06 17:58:51;;;;;;;9.70;2.63;;;15.90;69.50;;;;;;10479801;28;20016;-57
2023/02/06 18:03:52;;;;;;;13.30;3.00;;;15.80;69.70;;;;;;10501122;28;20132;-57
2023/02/06 18:08:52;;;;;;;6.93;1.67;;;15.70;69.40;;;;;;10495107;28;20033;-58
2023/02/06 18:13:54;;;;;;;9.48;1.88;;;15.80;69.20;;;;;;10492795;28;20194;-57
2023/02/06 18:18:55;;;;;;;7.32;2.40;;;15.80;69.00;;;;;;10492246;28;20020;-57
2023/02/06 18:23:57;;;;;;;11.32;1.92;;;15.80;68.80;;;;;;10474375;28;20085;-58
2023/02/06 18:28:58;;;;;;;9.68;1.40;;;15.80;68.50;;;;;;10503600;28;20051;-56
2023/02/06 18:34:01;;;;;;;7.10;2.45;;;15.80;68.20;;;;;;10467783;28;20017;-56
2023/02/06 18:39:04;;;;;;;8.40;1.20;;;15.80;68.00;;;;;;10482528;28;20024;-58
2023/02/06 18:44:08;;;;;;;3.60;1.17;;;15.80;67.80;;;;;;10473199;28;20016;-56
2023/02/06 18:49:09;;;;;;;12.23;1.60;;;15.80;68.00;;;;;;10477514;28;20097;-56
2023/02/06 18:54:10;;;;;;;7.05;1.95;;;15.90;67.90;;;;;;10491580;28;20017;-58
2023/02/06 18:59:11;;;;;;;7.88;1.48;;;16.00;67.80;;;;;;10472587;28;20024;-56
2023/02/06 19:04:12;;;;;;;7.63;1.60;;;16.00;67.40;;;;;;10444459;28;20476;-55
2023/02/06 19:09:16;;;;;;;4.80;1.50;;;16.10;67.70;;;;;;10496572;28;20032;-55
2023/02/06 19:14:21;;;;;;;10.95;3.50;;;16.00;67.90;;;;;;10473157;28;20359;-56
2023/02/06 19:19:21;;;;;;;11.25;2.17;;;15.90;67.90;;;;;;10457205;28;20086;-56
2023/02/06 19:24:25;;;;;;;8.80;1.17;;;15.90;68.10;;;;;;10453646;28;20186;-55
2023/02/06 19:29:25;;;;;;;6.45;1.33;;;15.90;68.00;;;;;;10469416;28;20036;-55
2023/02/06 19:34:26;;;;;;;6.88;1.80;;;16.00;68.00;;;;;;10483082;28;20629;-55
2023/02/06 19:39:28;;;;;;;7.65;1.70;;;16.00;68.00;;;;;;10471588;28;20024;-55
2023/02/06 19:44:30;;;;;;;4.88;1.35;;;15.90;68.10;;;;;;10487583;28;20016;-55
2023/02/06 19:49:31;;;;;;;3.90;1.65;;;16.00;68.10;;;;;;10476829;28;20025;-55
2023/02/06 19:54:32;;;;;;;6.80;1.70;;;16.00;68.10;;;;;;10489753;28;20024;-54
2023/02/06 19:59:32;;;;;;;6.75;1.70;;;16.00;68.00;;;;;;10459460;28;20017;-57
2023/02/06 20:04:35;;;;;;;3.95;1.20;;;16.00;68.00;;;;;;10487517;28;20021;-54
2023/02/06 20:09:40;;;;;;;2.65;1.40;;;16.00;67.90;;;;;;10454230;28;20085;-55
2023/02/06 20:14:41;;;;;;;3.35;1.48;;;15.90;67.90;;;;;;10473736;28;20016;-56
2023/02/06 20:19:41;;;;;;;3.45;1.08;;;16.00;67.90;;;;;;10468432;28;20042;-56
2023/02/06 20:24:42;;;;;;;7.57;2.17;;;16.00;67.50;;;;;;10467859;28;20488;-57
2023/02/06 20:29:45;;;;;;;6.40;1.90;;;15.90;67.20;;;;;;10478302;28;20049;-56
2023/02/06 20:34:46;;;;;;;7.95;2.50;;;15.90;67.30;;;;;;10443996;28;20054;-56
2023/02/06 20:39:48;;;;;;;10.88;2.17;;;15.80;67.30;;;;;;10492951;28;20060;-56
2023/02/06 20:44:49;;;;;;;2.53;1.20;;;15.70;67.40;;;;;;10453028;28;20065;-56
2023/02/06 20:49:50;;;;;;;3.35;1.50;;;15.70;67.50;;;;;;10498262;28;20028;-56
2023/02/06 20:54:50;;;;;;;2.67;1.15;;;15.60;67.40;;;;;;10487160;28;20107;-56
2023/02/06 20:59:52;;;;;;;3.83;1.30;;;15.50;67.50;;;;;;10477468;28;20060;-56
2023/02/06 21:04:54;;;;;;;4.35;1.38;;;15.40;67.60;;;;;;10469557;28;20032;-56
2023/02/06 21:09:54;;;;;;;4.07;1.52;;;15.40;67.60;;;;;;10494051;28;20392;-55
2023/02/06 21:14:55;;;;;;;3.55;1.48;;;15.30;67.60;;;;;;10469134;28;20036;-56
2023/02/06 21:19:56;;;;;;;3.97;1.05;;;15.30;67.70;;;;;;10472154;28;20029;-56
2023/02/06 21:24:56;;;;;;;4.05;1.65;;;15.20;67.80;;;;;;10469029;28;20143;-57
2023/02/06 21:29:57;;;;;;;3.42;1.25;;;15.20;67.70;;;;;;10473734;28;20692;-56
2023/02/06 21:34:58;;;;;;;3.92;1.80;;;15.10;67.70;;;;;;10494408;28;20106;-56
2023/02/06 21:39:58;;;;;;;6.03;1.30;;;15.00;67.70;;;;;;10486385;28;20103;-56
2023/02/06 21:44:59;;;;;;;4.68;1.27;;;15.00;67.60;;;;;;10476280;28;20467;-56
2023/02/06 21:50:00;;;;;;;3.88;1.80;;;15.00;67.60;;;;;;10476134;28;20719;-56
2023/02/06 21:55:01;;;;;;;3.08;1.15;;;14.90;67.50;;;;;;10493393;28;20040;-56
2023/02/06 22:00:05;;;;;;;4.43;1.30;;;14.90;67.40;;;;;;10484883;28;20720;-57
2023/02/06 22:05:06;;;;;;;4.07;1.67;;;14.80;67.40;;;;;;10475413;28;20024;-56
2023/02/06 22:10:07;;;;;;;3.80;2.05;;;14.80;67.60;;;;;;10484292;28;20028;-56
2023/02/06 22:15:08;;;;;;;3.92;2.05;;;14.80;67.70;;;;;;10493480;28;20025;-56
2023/02/06 22:20:09;;;;;;;3.70;1.63;;;14.70;68.20;;;;;;10474030;28;20111;-55
2023/02/06 22:25:10;;;;;;;2.65;1.65;;;14.70;68.60;;;;;;10478207;28;20048;-57
2023/02/06 22:30:11;;;;;;;3.00;1.42;;;14.70;67.80;;;;;;10492391;28;20027;-55
2023/02/06 22:35:12;;;;;;;4.57;1.65;;;14.60;67.30;;;;;;10474781;28;20029;-56
2023/02/06 22:40:13;;;;;;;2.97;1.88;;;14.60;67.20;;;;;;10502742;28;20079;-57
2023/02/06 22:45:13;;;;;;;1.98;1.27;;;14.60;67.70;;;;;;10491730;28;20127;-56
2023/02/06 22:50:14;;;;;;;3.08;1.23;;;14.60;68.20;;;;;;10473514;28;20513;-56
2023/02/06 22:55:15;;;;;;;3.33;1.23;;;14.50;68.60;;;;;;10482099;28;20024;-56
2023/02/06 23:00:17;;;;;;;2.90;1.20;;;14.50;68.60;;;;;;10491047;28;20032;-56
2023/02/06 23:05:17;;;;;;;2.47;1.83;;;14.50;68.70;;;;;;10479478;28;20356;-57
2023/02/06 23:10:18;;;;;;;3.45;1.77;;;14.40;68.70;;;;;;10504164;28;20032;-57
2023/02/06 23:15:19;;;;;;;4.13;1.52;;;14.40;68.70;;;;;;10476366;28;20032;-57
2023/02/06 23:20:20;;;;;;;3.38;1.50;;;14.40;68.70;;;;;;10490178;28;20519;-56
2023/02/06 23:25:20;;;;;;;5.65;2.20;;;14.40;68.80;;;;;;10475877;28;20194;-57
2023/02/06 23:30:21;;;;;;;3.08;1.42;;;14.40;68.70;;;;;;10471725;28;20024;-56
2023/02/06 23:35:21;;;;;;;4.32;1.40;;;14.40;68.60;;;;;;10451631;28;20149;-57
2023/02/06 23:40:22;;;;;;;3.28;1.45;;;14.30;68.50;;;;;;10481747;28;20077;-55
2023/02/06 23:45:23;;;;;;;5.40;2.03;;;14.30;68.50;;;;;;10489220;28;20062;-57
2023/02/06 23:50:25;;;;;;;3.13;1.27;;;14.30;68.50;;;;;;10488464;28;20077;-57
2023/02/06 23:55:27;;;;;;;3.63;1.33;;;14.30;67.80;;;;;;10463813;28;20127;-56
